createdAt,value
2017-12-26T00:02:15.961Z,4.40
2017-12-26T00:04:44.236Z,4.40
2017-12-26T00:07:12.496Z,4.40
2017-12-26T00:09:40.760Z,4.40
2017-12-26T00:12:09.785Z,4.40
2017-12-26T00:14:38.086Z,4.30
2017-12-26T00:17:06.358Z,4.40
2017-12-26T00:19:34.641Z,4.40
2017-12-26T00:22:02.939Z,4.30
2017-12-26T00:24:31.171Z,4.30
2017-12-26T00:26:59.471Z,4.30
2017-12-26T00:29:27.728Z,4.20
2017-12-26T00:31:55.982Z,4.20
2017-12-26T00:34:24.265Z,4.00
2017-12-26T00:36:52.597Z,4.00
2017-12-26T00:39:22.372Z,4.00
2017-12-26T00:41:50.628Z,4.00
2017-12-26T00:44:18.904Z,4.00
2017-12-26T00:46:47.168Z,4.00
2017-12-26T00:49:16.218Z,3.90
2017-12-26T00:51:44.594Z,3.80
2017-12-26T00:54:12.874Z,3.90
2017-12-26T00:56:41.161Z,3.80
2017-12-26T00:59:09.483Z,3.70
2017-12-26T01:01:37.758Z,3.70
2017-12-26T01:04:06.007Z,3.70
2017-12-26T01:06:35.076Z,3.70
2017-12-26T01:09:03.337Z,3.60
2017-12-26T01:11:31.609Z,3.60
2017-12-26T01:13:59.909Z,3.60
2017-12-26T01:16:28.168Z,3.60
2017-12-26T01:18:56.463Z,3.60
2017-12-26T01:21:24.715Z,3.60
2017-12-26T01:23:53.004Z,3.60
2017-12-26T01:26:21.260Z,3.60
2017-12-26T01:28:49.561Z,3.60
2017-12-26T01:31:17.805Z,3.60
2017-12-26T01:33:46.069Z,3.50
2017-12-26T01:36:15.117Z,3.50
2017-12-26T01:38:43.378Z,3.50
2017-12-26T01:41:11.660Z,3.50
2017-12-26T01:43:39.919Z,3.50
2017-12-26T01:46:20.241Z,3.50
2017-12-26T01:48:49.297Z,3.40
2017-12-26T01:51:17.580Z,3.40
2017-12-26T01:53:45.859Z,3.40
2017-12-26T01:56:14.131Z,3.40
2017-12-26T01:58:42.417Z,3.30
2017-12-26T02:01:10.691Z,3.40
2017-12-26T02:03:38.981Z,3.30
2017-12-26T02:06:08.054Z,3.40
2017-12-26T02:08:36.446Z,3.30
2017-12-26T02:11:06.418Z,3.30
2017-12-26T02:13:34.694Z,3.30
2017-12-26T02:16:03.018Z,3.30
2017-12-26T02:18:31.322Z,3.30
2017-12-26T02:20:59.561Z,3.30
2017-12-26T02:23:27.816Z,3.30
2017-12-26T02:25:56.121Z,3.30
2017-12-26T02:28:24.375Z,3.30
2017-12-26T02:30:52.778Z,3.30
2017-12-26T02:33:21.028Z,3.20
2017-12-26T02:35:49.349Z,3.20
2017-12-26T02:38:17.629Z,3.20
2017-12-26T02:40:46.657Z,3.20
2017-12-26T02:43:14.960Z,3.20
2017-12-26T02:45:43.273Z,3.20
2017-12-26T02:48:11.536Z,3.10
2017-12-26T02:50:39.792Z,3.10
2017-12-26T02:53:08.093Z,3.10
2017-12-26T02:55:36.469Z,3.10
2017-12-26T02:58:04.849Z,3.10
2017-12-26T03:00:33.228Z,3.10
2017-12-26T03:03:01.509Z,3.10
2017-12-26T03:05:29.780Z,3.00
2017-12-26T03:07:58.151Z,3.00
2017-12-26T03:10:26.439Z,3.00
2017-12-26T03:12:54.723Z,3.00
2017-12-26T03:15:23.094Z,3.00
2017-12-26T03:17:51.363Z,3.10
2017-12-26T03:20:19.652Z,3.10
2017-12-26T03:22:48.024Z,3.10
2017-12-26T03:25:16.296Z,3.10
2017-12-26T03:27:44.581Z,3.10
2017-12-26T03:30:12.845Z,3.10
2017-12-26T03:32:41.126Z,3.10
2017-12-26T03:35:10.121Z,3.10
2017-12-26T03:37:38.500Z,3.10
2017-12-26T03:40:06.776Z,3.00
2017-12-26T03:42:35.058Z,3.00
2017-12-26T03:45:03.322Z,3.00
2017-12-26T03:47:31.589Z,3.00
2017-12-26T03:49:59.879Z,3.00
2017-12-26T03:52:28.166Z,3.00
2017-12-26T03:54:56.445Z,3.00
2017-12-26T03:57:24.706Z,3.00
2017-12-26T03:59:52.989Z,3.00
2017-12-26T04:02:21.246Z,3.00
2017-12-26T04:04:49.568Z,3.00
2017-12-26T04:07:17.844Z,3.00
2017-12-26T04:09:46.205Z,3.00
2017-12-26T04:12:14.481Z,3.00
2017-12-26T04:14:42.748Z,3.00
2017-12-26T04:17:11.021Z,3.00
2017-12-26T04:19:39.279Z,3.00
2017-12-26T04:22:07.593Z,3.00
2017-12-26T04:24:35.837Z,3.00
2017-12-26T04:27:04.101Z,3.00
2017-12-26T04:29:32.372Z,3.00
2017-12-26T04:32:01.397Z,3.00
2017-12-26T04:34:29.685Z,2.90
2017-12-26T04:36:57.952Z,2.90
2017-12-26T04:39:26.253Z,3.00
2017-12-26T04:41:54.638Z,3.00
2017-12-26T04:44:22.913Z,3.00
2017-12-26T04:46:51.294Z,3.00
2017-12-26T04:49:19.563Z,3.00
2017-12-26T04:51:47.948Z,3.00
2017-12-26T04:54:16.222Z,3.00
2017-12-26T04:56:44.511Z,3.00
2017-12-26T04:59:12.878Z,3.00
2017-12-26T05:01:41.159Z,3.00
2017-12-26T05:04:09.424Z,3.00
2017-12-26T05:06:37.729Z,3.00
2017-12-26T05:09:05.975Z,3.00
2017-12-26T05:11:34.265Z,3.00
2017-12-26T05:14:02.529Z,3.00
2017-12-26T05:16:30.820Z,3.00
2017-12-26T05:18:59.098Z,3.00
2017-12-26T05:21:27.369Z,3.00
2017-12-26T05:23:55.640Z,3.00
2017-12-26T05:26:23.909Z,3.00
2017-12-26T05:28:52.212Z,3.00
2017-12-26T05:31:20.491Z,3.00
2017-12-26T05:33:48.753Z,3.00
2017-12-26T05:36:17.033Z,3.00
2017-12-26T05:38:45.332Z,3.00
2017-12-26T05:41:13.599Z,3.00
2017-12-26T05:43:41.890Z,3.00
2017-12-26T05:46:10.159Z,3.00
2017-12-26T05:48:38.436Z,3.00
2017-12-26T05:51:06.711Z,3.00
2017-12-26T05:53:34.964Z,3.00
2017-12-26T05:56:03.245Z,3.00
2017-12-26T05:58:31.632Z,3.00
2017-12-26T06:00:59.868Z,3.10
2017-12-26T06:03:28.152Z,3.10
2017-12-26T06:05:56.412Z,3.10
2017-12-26T06:08:24.680Z,3.10
2017-12-26T06:10:52.931Z,3.20
2017-12-26T06:13:21.208Z,3.10
2017-12-26T06:15:49.465Z,3.20
2017-12-26T06:18:17.849Z,3.20
2017-12-26T06:20:46.115Z,3.20
2017-12-26T06:23:14.368Z,3.20
2017-12-26T06:25:42.648Z,3.20
2017-12-26T06:28:10.907Z,3.20
2017-12-26T06:30:39.177Z,3.20
2017-12-26T06:33:08.188Z,3.20
2017-12-26T06:35:36.474Z,3.20
2017-12-26T06:38:04.768Z,3.20
2017-12-26T06:40:33.060Z,3.30
2017-12-26T06:43:01.324Z,3.30
2017-12-26T06:45:29.588Z,3.30
2017-12-26T06:47:57.879Z,3.30
2017-12-26T06:50:26.185Z,3.20
2017-12-26T06:52:54.467Z,3.30
2017-12-26T06:55:22.735Z,3.20
2017-12-26T06:57:51.011Z,3.30
2017-12-26T07:00:19.502Z,3.30
2017-12-26T07:02:47.790Z,3.30
2017-12-26T07:05:16.044Z,3.40
2017-12-26T07:07:44.403Z,3.40
2017-12-26T07:10:12.699Z,3.40
2017-12-26T07:12:40.967Z,3.40
2017-12-26T07:15:09.279Z,3.40
2017-12-26T07:17:38.362Z,3.50
2017-12-26T07:20:12.221Z,3.40
2017-12-26T07:22:41.255Z,3.50
2017-12-26T07:25:09.546Z,3.50
2017-12-26T07:27:37.796Z,3.50
2017-12-26T07:30:06.055Z,3.50
2017-12-26T07:32:34.333Z,3.50
2017-12-26T07:35:02.599Z,3.50
2017-12-26T07:37:31.644Z,3.50
2017-12-26T07:39:59.896Z,3.50
2017-12-26T07:42:28.178Z,3.60
2017-12-26T07:44:56.486Z,3.60
2017-12-26T07:47:24.875Z,3.60
2017-12-26T07:49:53.123Z,3.60
2017-12-26T07:52:21.381Z,3.60
2017-12-26T07:54:49.660Z,3.70
2017-12-26T07:57:17.907Z,3.70
2017-12-26T07:59:46.961Z,3.70
2017-12-26T08:02:15.212Z,3.70
2017-12-26T08:04:43.490Z,3.70
2017-12-26T08:07:11.786Z,3.80
2017-12-26T08:09:40.036Z,3.80
2017-12-26T08:12:08.307Z,3.80
2017-12-26T08:14:36.573Z,3.90
2017-12-26T08:17:04.848Z,3.90
2017-12-26T08:19:33.121Z,3.90
2017-12-26T08:22:02.156Z,4.00
2017-12-26T08:24:30.423Z,4.00
2017-12-26T08:26:58.719Z,4.00
2017-12-26T08:29:26.964Z,4.10
2017-12-26T08:31:55.222Z,4.00
2017-12-26T08:34:24.391Z,4.10
2017-12-26T08:36:52.647Z,4.10
2017-12-26T08:39:20.930Z,4.10
2017-12-26T08:41:49.201Z,4.10
2017-12-26T08:44:17.492Z,4.20
2017-12-26T08:46:46.507Z,4.10
2017-12-26T08:49:15.672Z,4.10
2017-12-26T08:51:43.925Z,4.10
2017-12-26T08:54:12.179Z,4.20
2017-12-26T08:56:40.464Z,4.20
2017-12-26T08:59:08.724Z,4.20
2017-12-26T09:01:37.768Z,4.20
2017-12-26T09:04:06.022Z,4.20
2017-12-26T09:06:34.305Z,4.20
2017-12-26T09:09:02.555Z,4.20
2017-12-26T09:11:30.845Z,4.30
2017-12-26T09:13:59.129Z,4.40
2017-12-26T09:16:27.408Z,4.50
2017-12-26T09:18:55.749Z,4.50
2017-12-26T09:21:24.768Z,4.60
2017-12-26T09:23:53.044Z,4.60
2017-12-26T09:26:21.309Z,4.70
2017-12-26T09:28:49.602Z,4.70
2017-12-26T09:31:17.853Z,4.80
2017-12-26T09:33:46.895Z,4.90
2017-12-26T09:36:15.193Z,4.90
2017-12-26T09:38:43.443Z,5.00
2017-12-26T09:41:11.723Z,5.00
2017-12-26T09:43:39.990Z,5.10
2017-12-26T09:46:08.295Z,5.10
2017-12-26T09:48:36.564Z,5.10
2017-12-26T09:51:04.839Z,5.10
2017-12-26T09:53:33.128Z,5.20
2017-12-26T09:56:01.413Z,5.30
2017-12-26T09:58:29.667Z,5.40
2017-12-26T10:00:57.959Z,5.50
2017-12-26T10:03:26.237Z,5.60
2017-12-26T10:05:54.500Z,5.70
2017-12-26T10:08:22.768Z,5.80
2017-12-26T10:10:51.033Z,5.90
2017-12-26T10:13:19.397Z,6.00
2017-12-26T10:15:49.260Z,6.30
2017-12-26T10:18:17.550Z,6.30
2017-12-26T10:20:45.804Z,6.50
2017-12-26T10:23:14.100Z,6.60
2017-12-26T10:25:42.379Z,6.70
2017-12-26T10:28:12.139Z,7.00
2017-12-26T10:30:40.403Z,6.90
2017-12-26T10:33:09.428Z,7.20
2017-12-26T10:35:37.716Z,7.20
2017-12-26T10:38:05.977Z,7.30
2017-12-26T10:40:34.266Z,7.40
2017-12-26T10:43:02.563Z,7.60
2017-12-26T10:45:30.834Z,7.60
2017-12-26T10:47:59.100Z,7.70
2017-12-26T10:50:27.348Z,7.80
2017-12-26T10:52:55.673Z,7.80
2017-12-26T10:55:23.932Z,7.90
2017-12-26T10:57:52.204Z,8.00
2017-12-26T11:00:20.470Z,8.20
2017-12-26T11:02:48.741Z,8.30
2017-12-26T11:05:17.006Z,8.40
2017-12-26T11:07:45.256Z,8.50
2017-12-26T11:10:14.301Z,8.70
2017-12-26T11:12:42.702Z,8.70
2017-12-26T11:15:10.969Z,8.70
2017-12-26T11:17:39.225Z,8.90
2017-12-26T11:20:07.636Z,9.00
2017-12-26T11:22:35.940Z,9.10
2017-12-26T11:25:04.148Z,9.20
2017-12-26T11:27:32.421Z,9.30
2017-12-26T11:30:00.681Z,9.30
2017-12-26T11:32:29.732Z,9.50
2017-12-26T11:34:57.987Z,9.50
2017-12-26T11:37:26.265Z,9.60
2017-12-26T11:39:54.526Z,9.70
2017-12-26T11:42:22.847Z,9.80
2017-12-26T11:44:51.099Z,9.80
2017-12-26T11:47:19.348Z,9.90
2017-12-26T11:49:47.629Z,10.10
2017-12-26T11:52:15.889Z,10.10
2017-12-26T11:54:44.931Z,10.10
2017-12-26T11:57:13.223Z,10.10
2017-12-26T11:59:41.501Z,10.20
2017-12-26T12:02:09.769Z,10.30
2017-12-26T12:04:38.158Z,10.50
2017-12-26T12:07:06.410Z,10.70
2017-12-26T12:09:34.672Z,10.80
2017-12-26T12:12:02.970Z,10.60
2017-12-26T12:14:31.226Z,10.60
2017-12-26T12:16:59.546Z,10.40
2017-12-26T12:19:27.826Z,10.40
2017-12-26T12:21:56.212Z,10.40
2017-12-26T12:24:24.579Z,10.40
2017-12-26T12:26:52.960Z,10.40
2017-12-26T12:29:21.233Z,10.30
2017-12-26T12:31:49.483Z,10.20
2017-12-26T12:34:17.770Z,10.10
2017-12-26T12:36:46.029Z,10.10
2017-12-26T12:39:14.313Z,10.00
2017-12-26T12:41:42.619Z,10.10
2017-12-26T12:44:11.000Z,10.00
2017-12-26T12:46:39.253Z,10.00
2017-12-26T12:49:07.533Z,10.00
2017-12-26T12:51:35.784Z,9.90
2017-12-26T12:54:04.058Z,9.90
2017-12-26T12:56:33.099Z,9.90
2017-12-26T12:59:01.353Z,9.90
2017-12-26T13:01:29.657Z,10.00
2017-12-26T13:03:58.676Z,9.90
2017-12-26T13:06:26.951Z,9.90
2017-12-26T13:08:55.194Z,9.80
2017-12-26T13:11:23.583Z,9.80
2017-12-26T13:13:51.829Z,9.80
2017-12-26T13:16:20.076Z,9.90
2017-12-26T13:18:49.233Z,10.00
2017-12-26T13:21:17.500Z,9.90
2017-12-26T13:23:45.896Z,10.00
2017-12-26T13:26:14.269Z,10.10
2017-12-26T13:28:42.557Z,10.10
2017-12-26T13:31:10.841Z,10.10
2017-12-26T13:33:39.128Z,10.20
2017-12-26T13:36:07.477Z,10.20
2017-12-26T13:38:35.735Z,10.20
2017-12-26T13:41:04.036Z,10.20
2017-12-26T13:43:32.967Z,10.20
2017-12-26T13:46:02.859Z,10.20
2017-12-26T13:48:31.500Z,10.20
2017-12-26T13:50:59.787Z,10.20
2017-12-26T13:53:28.208Z,10.20
2017-12-26T13:55:56.459Z,10.20
2017-12-26T13:58:24.829Z,10.20
2017-12-26T14:00:53.347Z,10.20
2017-12-26T14:03:21.683Z,10.20
2017-12-26T14:05:49.951Z,10.10
2017-12-26T14:08:18.294Z,9.90
2017-12-26T14:10:48.045Z,9.50
2017-12-26T14:13:16.366Z,9.40
2017-12-26T14:15:44.616Z,9.30
2017-12-26T14:18:12.890Z,9.10
2017-12-26T14:20:41.152Z,9.00
2017-12-26T14:23:10.168Z,8.80
2017-12-26T14:25:38.837Z,8.70
2017-12-26T14:28:07.862Z,8.70
2017-12-26T14:30:36.162Z,8.70
2017-12-26T14:33:04.405Z,8.70
2017-12-26T14:35:32.689Z,8.70
2017-12-26T14:38:00.940Z,8.70
2017-12-26T14:40:29.977Z,8.70
2017-12-26T14:42:58.273Z,8.70
2017-12-26T14:45:26.647Z,8.70
2017-12-26T14:47:54.941Z,8.70
2017-12-26T14:50:23.217Z,8.70
2017-12-26T14:52:51.501Z,8.70
2017-12-26T14:55:19.746Z,8.60
2017-12-26T14:57:48.021Z,8.60
2017-12-26T15:00:16.314Z,8.60
2017-12-26T15:02:44.568Z,8.50
2017-12-26T15:05:12.837Z,8.50
2017-12-26T15:07:41.101Z,8.50
2017-12-26T15:10:09.380Z,8.50
2017-12-26T15:12:37.634Z,8.40
2017-12-26T15:15:06.776Z,8.30
2017-12-26T15:17:35.032Z,8.30
2017-12-26T15:20:03.334Z,8.30
2017-12-26T15:22:31.593Z,8.20
2017-12-26T15:24:59.858Z,8.20
2017-12-26T15:27:28.146Z,8.20
2017-12-26T15:29:56.392Z,8.20
2017-12-26T15:32:25.545Z,8.20
2017-12-26T15:34:53.812Z,8.20
2017-12-26T15:37:22.086Z,8.20
2017-12-26T15:39:50.343Z,8.20
2017-12-26T15:42:18.772Z,8.20
2017-12-26T15:44:47.124Z,8.20
2017-12-26T15:47:15.413Z,8.20
2017-12-26T15:49:43.684Z,8.20
2017-12-26T15:52:11.932Z,8.10
2017-12-26T15:54:40.345Z,8.10
2017-12-26T15:57:08.589Z,8.20
2017-12-26T15:59:36.897Z,8.10
2017-12-26T16:02:05.279Z,8.10
2017-12-26T16:04:33.550Z,8.20
2017-12-26T16:07:01.795Z,8.20
2017-12-26T16:09:30.048Z,8.20
2017-12-26T16:11:59.101Z,8.10
2017-12-26T16:14:27.390Z,8.10
2017-12-26T16:16:55.659Z,8.10
2017-12-26T16:19:23.904Z,8.00
2017-12-26T16:21:52.212Z,8.00
2017-12-26T16:24:20.467Z,8.00
2017-12-26T16:26:48.724Z,8.00
2017-12-26T16:29:17.041Z,8.00
2017-12-26T16:31:45.337Z,8.00
2017-12-26T16:34:14.369Z,8.00
2017-12-26T16:36:42.696Z,8.00
2017-12-26T16:39:10.965Z,8.00
2017-12-26T16:41:39.222Z,7.90
2017-12-26T16:44:07.518Z,7.90
2017-12-26T16:46:35.789Z,7.80
2017-12-26T16:49:04.055Z,7.80
2017-12-26T16:51:32.329Z,7.70
2017-12-26T16:54:00.574Z,7.60
2017-12-26T16:56:29.625Z,7.60
2017-12-26T16:58:57.879Z,7.50
2017-12-26T17:01:26.168Z,7.40
2017-12-26T17:03:54.415Z,7.40
2017-12-26T17:06:22.695Z,7.30
2017-12-26T17:08:51.028Z,7.20
2017-12-26T17:11:19.271Z,7.20
2017-12-26T17:13:47.535Z,7.20
2017-12-26T17:16:15.793Z,7.20
2017-12-26T17:18:44.061Z,7.20
2017-12-26T17:21:13.119Z,7.10
2017-12-26T17:23:41.384Z,7.10
2017-12-26T17:26:09.628Z,7.10
2017-12-26T17:28:38.253Z,7.10
2017-12-26T17:31:06.540Z,7.00
2017-12-26T17:33:34.797Z,7.00
2017-12-26T17:36:03.067Z,6.90
2017-12-26T17:38:31.321Z,6.90
2017-12-26T17:40:59.595Z,6.90
2017-12-26T17:43:27.913Z,6.90
2017-12-26T17:45:56.177Z,6.90
2017-12-26T17:48:24.430Z,6.80
2017-12-26T17:50:52.747Z,6.80
2017-12-26T17:53:21.038Z,6.70
2017-12-26T17:55:50.834Z,6.70
2017-12-26T17:58:19.096Z,6.70
2017-12-26T18:00:47.346Z,6.70
2017-12-26T18:03:15.667Z,6.60
2017-12-26T18:05:43.912Z,6.60
2017-12-26T18:08:12.204Z,6.60
2017-12-26T18:10:40.451Z,6.60
2017-12-26T18:13:08.722Z,6.60
2017-12-26T18:15:37.769Z,6.40
2017-12-26T18:18:06.019Z,6.40
2017-12-26T18:20:34.304Z,6.40
2017-12-26T18:23:02.571Z,6.40
2017-12-26T18:25:30.849Z,6.40
2017-12-26T18:27:59.096Z,6.40
2017-12-26T18:30:28.150Z,6.30
2017-12-26T18:32:56.423Z,6.30
2017-12-26T18:35:24.683Z,6.20
2017-12-26T18:37:52.958Z,6.20
2017-12-26T18:40:21.259Z,6.30
2017-12-26T18:42:49.530Z,6.20
2017-12-26T18:45:17.774Z,6.20
2017-12-26T18:47:46.050Z,6.10
2017-12-26T18:50:14.292Z,6.10
2017-12-26T18:52:42.622Z,6.10
2017-12-26T18:55:10.879Z,6.10
2017-12-26T18:57:39.136Z,6.10
2017-12-26T19:00:08.187Z,6.00
2017-12-26T19:02:36.442Z,6.00
2017-12-26T19:05:04.737Z,6.00
2017-12-26T19:07:32.991Z,6.00
2017-12-26T19:10:01.399Z,5.90
2017-12-26T19:12:29.636Z,5.90
2017-12-26T19:14:57.900Z,5.90
2017-12-26T19:17:27.071Z,5.80
2017-12-26T19:19:56.087Z,5.80
2017-12-26T19:22:25.345Z,5.80
2017-12-26T19:24:53.587Z,5.70
2017-12-26T19:27:21.867Z,5.70
2017-12-26T19:29:50.134Z,5.70
2017-12-26T19:32:18.417Z,5.70
2017-12-26T19:34:46.755Z,5.60
2017-12-26T19:37:15.102Z,5.60
2017-12-26T19:39:43.372Z,5.60
2017-12-26T19:42:11.617Z,5.50
2017-12-26T19:44:39.937Z,5.50
2017-12-26T19:47:08.206Z,5.50
2017-12-26T19:49:36.459Z,5.50
2017-12-26T19:52:04.715Z,5.50
2017-12-26T19:54:33.755Z,5.40
2017-12-26T19:57:02.016Z,5.40
2017-12-26T19:59:30.284Z,5.30
2017-12-26T20:01:58.563Z,5.30
2017-12-26T20:04:26.909Z,5.30
2017-12-26T20:06:55.948Z,5.20
2017-12-26T20:09:24.257Z,5.20
2017-12-26T20:11:52.538Z,5.20
2017-12-26T20:14:21.569Z,5.10
2017-12-26T20:16:50.612Z,5.10
2017-12-26T20:19:18.889Z,5.00
2017-12-26T20:21:47.169Z,5.10
2017-12-26T20:24:15.451Z,5.10
2017-12-26T20:26:43.713Z,5.00
2017-12-26T20:29:26.560Z,5.00
2017-12-26T20:31:55.576Z,5.00
2017-12-26T20:34:24.737Z,5.00
2017-12-26T20:36:52.989Z,4.90
2017-12-26T20:39:21.388Z,4.90
2017-12-26T20:41:49.636Z,4.90
2017-12-26T20:44:17.937Z,4.80
2017-12-26T20:46:46.191Z,4.80
2017-12-26T20:49:14.445Z,4.80
2017-12-26T20:51:42.715Z,4.80
2017-12-26T20:54:11.714Z,4.70
2017-12-26T20:56:39.988Z,4.70
2017-12-26T20:59:09.006Z,4.70
2017-12-26T21:01:37.269Z,4.70
2017-12-26T21:04:05.527Z,4.70
2017-12-26T21:06:34.556Z,4.70
2017-12-26T21:09:02.815Z,4.70
2017-12-26T21:11:31.823Z,4.70
2017-12-26T21:14:00.087Z,4.60
2017-12-26T21:16:28.410Z,4.60
2017-12-26T21:18:56.687Z,4.60
2017-12-26T21:21:24.932Z,4.60
2017-12-26T21:23:53.222Z,4.60
2017-12-26T21:26:21.459Z,4.60
2017-12-26T21:28:50.518Z,4.60
2017-12-26T21:31:18.891Z,4.60
2017-12-26T21:33:47.130Z,4.60
2017-12-26T21:36:15.411Z,4.50
2017-12-26T21:38:43.656Z,4.50
2017-12-26T21:41:12.693Z,4.50
2017-12-26T21:43:40.992Z,4.40
2017-12-26T21:46:09.372Z,4.50
2017-12-26T21:48:37.639Z,4.40
2017-12-26T21:51:05.914Z,4.40
2017-12-26T21:53:34.165Z,4.40
2017-12-26T21:58:37.004Z,4.40
2017-12-26T22:01:05.251Z,4.40
2017-12-26T22:03:33.528Z,4.40
2017-12-26T22:06:01.888Z,4.40
2017-12-26T22:08:30.956Z,4.40
2017-12-26T22:10:59.208Z,4.40
2017-12-26T22:13:27.504Z,4.30
2017-12-26T22:15:56.784Z,4.40
2017-12-26T22:18:25.043Z,4.40
2017-12-26T22:20:53.313Z,4.40
2017-12-26T22:23:21.616Z,4.40
2017-12-26T22:25:49.888Z,4.40
2017-12-26T22:28:18.153Z,4.40
2017-12-26T22:30:46.432Z,4.40
2017-12-26T22:33:14.684Z,4.40
2017-12-26T22:35:42.941Z,4.40
2017-12-26T22:38:11.995Z,4.40
2017-12-26T22:40:40.277Z,4.40
2017-12-26T22:43:08.540Z,4.40
2017-12-26T22:45:36.799Z,4.40
2017-12-26T22:48:05.076Z,4.40
2017-12-26T22:50:33.371Z,4.30
2017-12-26T22:53:01.627Z,4.30
2017-12-26T22:55:29.905Z,4.30
2017-12-26T22:57:58.927Z,4.20
2017-12-26T23:00:27.196Z,4.20
2017-12-26T23:02:55.481Z,4.10
2017-12-26T23:05:23.861Z,4.10
2017-12-26T23:07:52.103Z,4.10
2017-12-26T23:10:20.376Z,4.10
2017-12-26T23:12:48.688Z,4.10
2017-12-26T23:15:22.679Z,4.10
2017-12-26T23:17:56.549Z,4.00
2017-12-26T23:20:31.161Z,4.00
2017-12-26T23:23:06.756Z,4.00
2017-12-26T23:25:40.681Z,4.00
2017-12-26T23:28:14.531Z,4.00
2017-12-26T23:30:48.410Z,3.90
2017-12-26T23:33:22.287Z,4.00
2017-12-26T23:35:56.263Z,3.90
2017-12-26T23:38:30.074Z,3.90
2017-12-26T23:41:04.813Z,3.90
2017-12-26T23:43:39.657Z,3.80
2017-12-26T23:46:13.561Z,3.80
2017-12-26T23:51:47.172Z,3.90
2017-12-26T23:54:22.012Z,3.90
2017-12-26T23:56:55.974Z,3.80
2017-12-26T23:59:30.040Z,3.80
